createdAt,value
2023-03-19T00:03:47.578Z,11.8
2023-03-19T00:18:57.502Z,11.7
2023-03-19T00:34:09.778Z,11.6
2023-03-19T00:49:20.469Z,11.4
2023-03-19T01:04:30.430Z,11.3
2023-03-19T01:19:40.996Z,11.3
2023-03-19T01:34:50.657Z,11.1
2023-03-19T01:50:00.154Z,11
2023-03-19T02:05:09.989Z,10.9
2023-03-19T02:20:19.440Z,10.8
2023-03-19T02:35:29.598Z,10.7
2023-03-19T02:50:41.618Z,10.6
2023-03-19T03:05:51.328Z,10.6
2023-03-19T03:21:00.732Z,10.6
2023-03-19T03:36:10.492Z,10.6
2023-03-19T03:51:20.052Z,10.6
2023-03-19T04:06:29.304Z,10.5
2023-03-19T04:21:38.601Z,10.4
2023-03-19T04:36:47.827Z,10.4
2023-03-19T04:51:59.543Z,10.4
2023-03-19T05:07:09.916Z,10.3
2023-03-19T05:22:19.093Z,10.3
2023-03-19T05:37:28.715Z,10.3
2023-03-19T05:52:39.234Z,10.4
2023-03-19T06:07:48.819Z,10.5
2023-03-19T06:22:58.726Z,10.6
2023-03-19T06:38:11.391Z,10.7
2023-03-19T06:53:21.364Z,10.8
2023-03-19T07:08:31.763Z,11
2023-03-19T07:23:41.819Z,11.1
2023-03-19T07:38:51.137Z,11.3
2023-03-19T07:54:01.159Z,11.5
2023-03-19T08:09:11.065Z,11.7
2023-03-19T08:24:20.628Z,11.8
2023-03-19T08:39:30.389Z,12.1
2023-03-19T08:54:40.427Z,12.5
2023-03-19T09:09:50.825Z,12.9
2023-03-19T09:25:00.365Z,13.3
2023-03-19T09:40:10.449Z,13.7
2023-03-19T09:55:20.845Z,14.1
2023-03-19T10:10:30.668Z,14.4
2023-03-19T10:25:41.613Z,14.6
2023-03-19T10:40:51.311Z,14.9
2023-03-19T10:56:00.950Z,15.1
2023-03-19T11:11:10.392Z,15.3
2023-03-19T11:26:20.132Z,15.6
2023-03-19T11:41:30.378Z,15.9
2023-03-19T11:56:40.207Z,16.3
2023-03-19T12:11:50.893Z,16.7
2023-03-19T12:27:00.709Z,16.6
2023-03-19T12:42:10.518Z,16.3
2023-03-19T12:57:20.079Z,15.9
2023-03-19T13:12:29.493Z,15.6
2023-03-19T13:27:39.182Z,15.4
2023-03-19T13:42:48.730Z,15.3
2023-03-19T13:57:58.069Z,15.3
2023-03-19T14:13:07.848Z,15.4
2023-03-19T14:28:18.161Z,15.6
2023-03-19T14:43:28.763Z,16.7
2023-03-19T14:58:38.309Z,16.1
2023-03-19T15:13:47.374Z,15.8
2023-03-19T15:28:57.888Z,16.1
2023-03-19T15:44:07.534Z,16.3
2023-03-19T15:59:17.575Z,16.3
2023-03-19T16:14:29.732Z,15.9
2023-03-19T16:29:39.322Z,15.5
2023-03-19T16:44:49.290Z,15.3
2023-03-19T16:59:58.858Z,15.1
2023-03-19T17:15:08.408Z,14.9
2023-03-19T17:30:18.272Z,14.8
2023-03-19T17:45:28.628Z,14.7
2023-03-19T18:00:38.409Z,14.6
2023-03-19T18:15:49.213Z,14.4
2023-03-19T18:30:58.855Z,14.3
2023-03-19T18:46:08.692Z,14.2
2023-03-19T19:01:18.600Z,14.1
2023-03-19T19:16:28.609Z,14
2023-03-19T19:31:39.088Z,13.9
2023-03-19T19:46:48.269Z,13.8
2023-03-19T20:01:58.206Z,13.7
2023-03-19T20:17:08.360Z,13.5
2023-03-19T20:32:17.797Z,13.4
2023-03-19T20:47:27.565Z,13.3
2023-03-19T21:02:36.987Z,13.2
2023-03-19T21:17:46.614Z,13
2023-03-19T21:32:56.143Z,12.9
2023-03-19T21:48:06.014Z,12.8
2023-03-19T22:03:15.655Z,12.7
2023-03-19T22:18:25.738Z,12.6
2023-03-19T22:33:35.209Z,12.5
2023-03-19T22:48:44.288Z,12.5
2023-03-19T23:03:53.636Z,12.4
2023-03-19T23:19:03.876Z,12.4
2023-03-19T23:34:13.316Z,12.4
2023-03-19T23:49:24.298Z,12.2
